TAF

Looking Back 6 Hours

Worst Weather Category
LocationTimeVisiblityCeilingWeatherWind SpeedWind Gust
KPBF100520Z6NONENONE NNW 5NA NA

  • TAFPBF TAF KPBF 100520Z 1006/1106 34005KT P6SM SCT250
          FM110000 VRB03KT P6SM SKC =